sensor_id;sensor_type;location;lat;lon;timestamp;pressure;altitude;pressure_sealevel;temperature;humidity
36980;BME280;22891;50.562;7.272;2022-11-15T00:01:49;99664.00;;;10.40;nan
36980;BME280;22891;50.562;7.272;2022-11-15T00:04:15;99671.00;;;10.51;nan
36980;BME280;22891;50.562;7.272;2022-11-15T00:06:41;99674.00;;;10.55;nan
36980;BME280;22891;50.562;7.272;2022-11-15T00:09:07;99679.00;;;10.46;nan
36980;BME280;22891;50.562;7.272;2022-11-15T00:11:32;99677.00;;;10.39;nan
36980;BME280;22891;50.562;7.272;2022-11-15T00:13:58;99668.00;;;10.44;nan
36980;BME280;22891;50.562;7.272;2022-11-15T00:16:24;99652.00;;;10.47;nan
36980;BME280;22891;50.562;7.272;2022-11-15T00:18:50;99650.00;;;10.50;nan
36980;BME280;22891;50.562;7.272;2022-11-15T00:21:17;99649.00;;;10.59;nan
36980;BME280;22891;50.562;7.272;2022-11-15T00:23:43;99660.00;;;10.56;nan
36980;BME280;22891;50.562;7.272;2022-11-15T00:26:13;99665.00;;;10.66;nan
36980;BME280;22891;50.562;7.272;2022-11-15T00:28:39;99680.00;;;10.62;nan
36980;BME280;22891;50.562;7.272;2022-11-15T00:31:08;99687.00;;;10.55;nan
36980;BME280;22891;50.562;7.272;2022-11-15T00:33:34;99703.00;;;10.55;nan
36980;BME280;22891;50.562;7.272;2022-11-15T00:36:05;99708.00;;;10.54;nan
36980;BME280;22891;50.562;7.272;2022-11-15T00:38:32;99713.00;;;10.44;nan
36980;BME280;22891;50.562;7.272;2022-11-15T00:40:59;99719.00;;;10.40;nan
36980;BME280;22891;50.562;7.272;2022-11-15T00:43:24;99722.00;;;10.29;nan
36980;BME280;22891;50.562;7.272;2022-11-15T00:45:50;99726.00;;;10.28;nan
36980;BME280;22891;50.562;7.272;2022-11-15T00:48:16;99723.00;;;10.21;nan
36980;BME280;22891;50.562;7.272;2022-11-15T00:50:42;99722.00;;;10.24;nan
36980;BME280;22891;50.562;7.272;2022-11-15T00:53:08;99726.00;;;10.23;nan
36980;BME280;22891;50.562;7.272;2022-11-15T00:55:33;99728.00;;;10.34;nan
36980;BME280;22891;50.562;7.272;2022-11-15T00:57:59;99727.00;;;10.30;nan
36980;BME280;22891;50.562;7.272;2022-11-15T01:00:25;99724.00;;;10.32;nan
36980;BME280;22891;50.562;7.272;2022-11-15T01:02:50;99713.00;;;10.33;nan
36980;BME280;22891;50.562;7.272;2022-11-15T01:05:16;99715.00;;;10.29;nan
36980;BME280;22891;50.562;7.272;2022-11-15T01:07:42;99702.00;;;10.28;nan
36980;BME280;22891;50.562;7.272;2022-11-15T01:10:08;99698.00;;;10.26;nan
36980;BME280;22891;50.562;7.272;2022-11-15T01:12:34;99689.00;;;10.23;nan
36980;BME280;22891;50.562;7.272;2022-11-15T01:15:00;99696.00;;;9.98;nan
36980;BME280;22891;50.562;7.272;2022-11-15T01:17:26;99691.00;;;10.02;nan
36980;BME280;22891;50.562;7.272;2022-11-15T01:19:51;99689.00;;;9.97;nan
36980;BME280;22891;50.562;7.272;2022-11-15T01:22:17;99683.00;;;9.91;nan
36980;BME280;22891;50.562;7.272;2022-11-15T01:24:43;99692.00;;;9.83;nan
36980;BME280;22891;50.562;7.272;2022-11-15T01:27:09;99683.00;;;9.75;nan
36980;BME280;22891;50.562;7.272;2022-11-15T01:29:35;99690.00;;;9.82;nan
36980;BME280;22891;50.562;7.272;2022-11-15T01:32:01;99691.00;;;9.76;nan
36980;BME280;22891;50.562;7.272;2022-11-15T01:34:27;99696.00;;;9.82;nan
36980;BME280;22891;50.562;7.272;2022-11-15T01:36:53;99696.00;;;9.76;nan
36980;BME280;22891;50.562;7.272;2022-11-15T01:39:18;99693.00;;;9.76;nan
36980;BME280;22891;50.562;7.272;2022-11-15T01:41:44;99679.00;;;9.69;nan
36980;BME280;22891;50.562;7.272;2022-11-15T01:50:59;99676.00;;;9.77;nan
36980;BME280;22891;50.562;7.272;2022-11-15T01:53:27;99661.00;;;9.83;nan
36980;BME280;22891;50.562;7.272;2022-11-15T01:55:55;99655.00;;;9.88;nan
36980;BME280;22891;50.562;7.272;2022-11-15T01:58:21;99650.00;;;10.01;nan
36980;BME280;22891;50.562;7.272;2022-11-15T02:00:48;99650.00;;;9.93;nan
36980;BME280;22891;50.562;7.272;2022-11-15T02:03:15;99640.00;;;10.03;nan
36980;BME280;22891;50.562;7.272;2022-11-15T02:05:41;99640.00;;;10.17;nan
36980;BME280;22891;50.562;7.272;2022-11-15T02:08:08;99630.00;;;10.22;nan
36980;BME280;22891;50.562;7.272;2022-11-15T02:10:46;99628.00;;;10.34;nan
36980;BME280;22891;50.562;7.272;2022-11-15T02:13:14;99632.00;;;10.39;nan
36980;BME280;22891;50.562;7.272;2022-11-15T02:16:03;99625.00;;;10.45;nan
36980;BME280;22891;50.562;7.272;2022-11-15T02:18:37;99611.00;;;10.46;nan
36980;BME280;22891;50.562;7.272;2022-11-15T02:22:22;99611.00;;;10.49;nan
36980;BME280;22891;50.562;7.272;2022-11-15T02:26:58;99607.00;;;10.53;nan
36980;BME280;22891;50.562;7.272;2022-11-15T02:42:55;99595.00;;;10.41;nan
36980;BME280;22891;50.562;7.272;2022-11-15T02:45:46;99597.00;;;10.42;nan
36980;BME280;22891;50.562;7.272;2022-11-15T02:48:14;99586.00;;;10.40;nan
36980;BME280;22891;50.562;7.272;2022-11-15T02:50:42;99578.00;;;10.45;nan
36980;BME280;22891;50.562;7.272;2022-11-15T02:53:09;99582.00;;;10.47;nan
36980;BME280;22891;50.562;7.272;2022-11-15T02:55:37;99585.00;;;10.46;nan
36980;BME280;22891;50.562;7.272;2022-11-15T03:16:34;99577.00;;;10.60;nan
36980;BME280;22891;50.562;7.272;2022-11-15T03:23:10;99565.00;;;10.63;nan
36980;BME280;22891;50.562;7.272;2022-11-15T03:25:41;99544.00;;;10.55;nan
36980;BME280;22891;50.562;7.272;2022-11-15T03:28:13;99558.00;;;10.81;nan
36980;BME280;22891;50.562;7.272;2022-11-15T03:30:44;99562.00;;;10.80;nan
36980;BME280;22891;50.562;7.272;2022-11-15T03:33:11;99557.00;;;10.77;nan
36980;BME280;22891;50.562;7.272;2022-11-15T03:35:39;99532.00;;;10.65;nan
36980;BME280;22891;50.562;7.272;2022-11-15T03:38:26;99561.00;;;10.86;nan
36980;BME280;22891;50.562;7.272;2022-11-15T03:41:04;99528.00;;;10.91;nan
36980;BME280;22891;50.562;7.272;2022-11-15T03:43:47;99539.00;;;10.96;nan
36980;BME280;22891;50.562;7.272;2022-11-15T03:46:17;99541.00;;;11.03;nan
36980;BME280;22891;50.562;7.272;2022-11-15T03:48:53;99544.00;;;11.08;nan
36980;BME280;22891;50.562;7.272;2022-11-15T03:51:22;99535.00;;;10.95;nan
36980;BME280;22891;50.562;7.272;2022-11-15T03:53:48;99535.00;;;10.99;nan
36980;BME280;22891;50.562;7.272;2022-11-15T03:56:14;99537.00;;;11.10;nan
36980;BME280;22891;50.562;7.272;2022-11-15T03:58:40;99528.00;;;11.14;nan
36980;BME280;22891;50.562;7.272;2022-11-15T04:01:06;99540.00;;;11.14;nan
36980;BME280;22891;50.562;7.272;2022-11-15T04:03:32;99536.00;;;11.19;nan
36980;BME280;22891;50.562;7.272;2022-11-15T04:05:58;99526.00;;;11.16;nan
36980;BME280;22891;50.562;7.272;2022-11-15T04:08:25;99530.00;;;11.15;nan
36980;BME280;22891;50.562;7.272;2022-11-15T04:10:51;99524.00;;;11.14;nan
36980;BME280;22891;50.562;7.272;2022-11-15T04:13:18;99518.00;;;11.18;nan
36980;BME280;22891;50.562;7.272;2022-11-15T04:15:44;99507.00;;;11.11;nan
36980;BME280;22891;50.562;7.272;2022-11-15T04:18:10;99519.00;;;11.21;nan
36980;BME280;22891;50.562;7.272;2022-11-15T04:20:35;99519.00;;;11.27;nan
36980;BME280;22891;50.562;7.272;2022-11-15T04:23:22;99526.00;;;11.25;nan
36980;BME280;22891;50.562;7.272;2022-11-15T04:26:18;99503.00;;;11.16;nan
36980;BME280;22891;50.562;7.272;2022-11-15T04:28:45;99520.00;;;11.22;nan
36980;BME280;22891;50.562;7.272;2022-11-15T04:31:29;99522.00;;;11.23;nan
36980;BME280;22891;50.562;7.272;2022-11-15T04:33:55;99516.00;;;11.24;nan
36980;BME280;22891;50.562;7.272;2022-11-15T04:36:21;99523.00;;;11.27;nan
36980;BME280;22891;50.562;7.272;2022-11-15T04:39:07;99523.00;;;11.28;nan
36980;BME280;22891;50.562;7.272;2022-11-15T04:41:33;99534.00;;;11.27;nan
36980;BME280;22891;50.562;7.272;2022-11-15T04:44:00;99528.00;;;11.30;nan
36980;BME280;22891;50.562;7.272;2022-11-15T04:46:26;99539.00;;;11.37;nan
36980;BME280;22891;50.562;7.272;2022-11-15T04:48:53;99534.00;;;11.32;nan
36980;BME280;22891;50.562;7.272;2022-11-15T04:51:19;99541.00;;;11.31;nan
36980;BME280;22891;50.562;7.272;2022-11-15T04:53:45;99549.00;;;11.37;nan
36980;BME280;22891;50.562;7.272;2022-11-15T04:56:12;99545.00;;;11.27;nan
36980;BME280;22891;50.562;7.272;2022-11-15T04:58:37;99550.00;;;11.32;nan
36980;BME280;22891;50.562;7.272;2022-11-15T05:01:14;99547.00;;;11.35;nan
36980;BME280;22891;50.562;7.272;2022-11-15T05:03:41;99546.00;;;11.31;nan
36980;BME280;22891;50.562;7.272;2022-11-15T05:06:25;99553.00;;;11.29;nan
36980;BME280;22891;50.562;7.272;2022-11-15T05:08:52;99567.00;;;11.25;nan
36980;BME280;22891;50.562;7.272;2022-11-15T05:11:18;99552.00;;;11.19;nan
36980;BME280;22891;50.562;7.272;2022-11-15T05:13:43;99555.00;;;11.14;nan
36980;BME280;22891;50.562;7.272;2022-11-15T05:16:09;99559.00;;;11.15;nan
36980;BME280;22891;50.562;7.272;2022-11-15T05:18:36;99571.00;;;11.11;nan
36980;BME280;22891;50.562;7.272;2022-11-15T05:21:12;99554.00;;;11.01;nan
36980;BME280;22891;50.562;7.272;2022-11-15T05:23:39;99575.00;;;11.17;nan
36980;BME280;22891;50.562;7.272;2022-11-15T05:26:06;99585.00;;;11.20;nan
36980;BME280;22891;50.562;7.272;2022-11-15T05:28:33;99580.00;;;11.15;nan
36980;BME280;22891;50.562;7.272;2022-11-15T05:31:04;99572.00;;;11.09;nan
36980;BME280;22891;50.562;7.272;2022-11-15T05:33:31;99568.00;;;11.03;nan
36980;BME280;22891;50.562;7.272;2022-11-15T05:36:03;99581.00;;;11.19;nan
36980;BME280;22891;50.562;7.272;2022-11-15T05:38:30;99580.00;;;11.13;nan
36980;BME280;22891;50.562;7.272;2022-11-15T05:40:56;99583.00;;;11.12;nan
36980;BME280;22891;50.562;7.272;2022-11-15T05:43:22;99584.00;;;11.03;nan
36980;BME280;22891;50.562;7.272;2022-11-15T05:45:49;99605.00;;;11.06;nan
36980;BME280;22891;50.562;7.272;2022-11-15T05:48:16;99613.00;;;11.08;nan
36980;BME280;22891;50.562;7.272;2022-11-15T05:50:44;99617.00;;;11.04;nan
36980;BME280;22891;50.562;7.272;2022-11-15T05:53:13;99627.00;;;10.97;nan
36980;BME280;22891;50.562;7.272;2022-11-15T05:55:40;99638.00;;;10.88;nan
36980;BME280;22891;50.562;7.272;2022-11-15T05:58:06;99643.00;;;10.89;nan
36980;BME280;22891;50.562;7.272;2022-11-15T06:00:32;99645.00;;;10.86;nan
36980;BME280;22891;50.562;7.272;2022-11-15T06:02:58;99656.00;;;10.89;nan
36980;BME280;22891;50.562;7.272;2022-11-15T06:05:24;99662.00;;;10.90;nan
36980;BME280;22891;50.562;7.272;2022-11-15T06:07:50;99653.00;;;10.91;nan
36980;BME280;22891;50.562;7.272;2022-11-15T06:10:16;99639.00;;;10.73;nan
36980;BME280;22891;50.562;7.272;2022-11-15T06:12:42;99662.00;;;10.85;nan
36980;BME280;22891;50.562;7.272;2022-11-15T06:15:09;99669.00;;;10.91;nan
36980;BME280;22891;50.562;7.272;2022-11-15T06:17:35;99671.00;;;10.92;nan
36980;BME280;22891;50.562;7.272;2022-11-15T06:20:01;99681.00;;;10.93;nan
36980;BME280;22891;50.562;7.272;2022-11-15T06:22:26;99695.00;;;10.91;nan
36980;BME280;22891;50.562;7.272;2022-11-15T06:24:52;99712.00;;;10.95;nan
36980;BME280;22891;50.562;7.272;2022-11-15T06:27:18;99729.00;;;10.83;nan
36980;BME280;22891;50.562;7.272;2022-11-15T06:29:44;99732.00;;;10.88;nan
36980;BME280;22891;50.562;7.272;2022-11-15T06:32:10;99741.00;;;10.87;nan
36980;BME280;22891;50.562;7.272;2022-11-15T06:34:35;99743.00;;;10.82;nan
36980;BME280;22891;50.562;7.272;2022-11-15T06:37:02;99754.00;;;10.85;nan
36980;BME280;22891;50.562;7.272;2022-11-15T06:39:28;99751.00;;;10.83;nan
36980;BME280;22891;50.562;7.272;2022-11-15T06:41:54;99739.00;;;10.82;nan
36980;BME280;22891;50.562;7.272;2022-11-15T06:44:20;99745.00;;;10.88;nan
36980;BME280;22891;50.562;7.272;2022-11-15T06:46:46;99745.00;;;10.81;nan
36980;BME280;22891;50.562;7.272;2022-11-15T06:49:12;99739.00;;;10.79;nan
36980;BME280;22891;50.562;7.272;2022-11-15T06:51:38;99740.00;;;10.76;nan
36980;BME280;22891;50.562;7.272;2022-11-15T06:54:04;99738.00;;;10.66;nan
36980;BME280;22891;50.562;7.272;2022-11-15T06:56:30;99739.00;;;10.68;nan
36980;BME280;22891;50.562;7.272;2022-11-15T06:58:56;99744.00;;;10.69;nan
36980;BME280;22891;50.562;7.272;2022-11-15T07:01:22;99739.00;;;10.63;nan
36980;BME280;22891;50.562;7.272;2022-11-15T07:03:47;99747.00;;;10.55;nan
36980;BME280;22891;50.562;7.272;2022-11-15T07:06:13;99744.00;;;10.50;nan
36980;BME280;22891;50.562;7.272;2022-11-15T07:08:39;99734.00;;;10.46;nan
36980;BME280;22891;50.562;7.272;2022-11-15T07:11:07;99747.00;;;10.46;nan
36980;BME280;22891;50.562;7.272;2022-11-15T07:13:35;99744.00;;;10.50;nan
36980;BME280;22891;50.562;7.272;2022-11-15T07:16:03;99750.00;;;10.54;nan
36980;BME280;22891;50.562;7.272;2022-11-15T07:18:30;99743.00;;;10.43;nan
36980;BME280;22891;50.562;7.272;2022-11-15T07:21:00;99750.00;;;10.52;nan
36980;BME280;22891;50.562;7.272;2022-11-15T07:23:29;99762.00;;;10.50;nan
36980;BME280;22891;50.562;7.272;2022-11-15T07:25:57;99775.00;;;10.50;nan
36980;BME280;22891;50.562;7.272;2022-11-15T07:28:24;99779.00;;;10.45;nan
36980;BME280;22891;50.562;7.272;2022-11-15T07:33:16;99107.00;;;10.30;nan
36980;BME280;22891;50.562;7.272;2022-11-15T07:35:42;99653.00;;;10.39;nan
36980;BME280;22891;50.562;7.272;2022-11-15T07:38:08;99679.00;;;10.36;nan
36980;BME280;22891;50.562;7.272;2022-11-15T07:40:34;99677.00;;;10.41;nan
36980;BME280;22891;50.562;7.272;2022-11-15T07:43:12;99681.00;;;10.44;nan
36980;BME280;22891;50.562;7.272;2022-11-15T07:45:44;99669.00;;;10.46;nan
36980;BME280;22891;50.562;7.272;2022-11-15T07:48:10;99679.00;;;10.49;nan
36980;BME280;22891;50.562;7.272;2022-11-15T07:50:40;99627.00;;;10.55;nan
36980;BME280;22891;50.562;7.272;2022-11-15T07:53:09;99510.00;;;10.48;nan
36980;BME280;22891;50.562;7.272;2022-11-15T07:55:36;99498.00;;;10.60;nan
36980;BME280;22891;50.562;7.272;2022-11-15T07:58:07;99681.00;;;10.73;nan
36980;BME280;22891;50.562;7.272;2022-11-15T08:00:34;99713.00;;;10.70;nan
36980;BME280;22891;50.562;7.272;2022-11-15T08:03:10;99728.00;;;10.76;nan
36980;BME280;22891;50.562;7.272;2022-11-15T08:05:38;99773.00;;;10.74;nan
36980;BME280;22891;50.562;7.272;2022-11-15T08:08:04;99784.00;;;10.81;nan
36980;BME280;22891;50.562;7.272;2022-11-15T08:10:31;99783.00;;;10.77;nan
36980;BME280;22891;50.562;7.272;2022-11-15T08:13:07;99784.00;;;10.78;nan
36980;BME280;22891;50.562;7.272;2022-11-15T08:15:42;99781.00;;;10.76;nan
36980;BME280;22891;50.562;7.272;2022-11-15T08:18:12;99785.00;;;10.91;nan
36980;BME280;22891;50.562;7.272;2022-11-15T08:20:40;99813.00;;;10.97;nan
36980;BME280;22891;50.562;7.272;2022-11-15T08:23:06;99817.00;;;11.17;nan
36980;BME280;22891;50.562;7.272;2022-11-15T08:25:34;99848.00;;;11.23;nan
36980;BME280;22891;50.562;7.272;2022-11-15T08:28:04;99873.00;;;11.36;nan
36980;BME280;22891;50.562;7.272;2022-11-15T08:30:34;99895.00;;;11.42;nan
36980;BME280;22891;50.562;7.272;2022-11-15T08:33:01;99924.00;;;11.44;nan
36980;BME280;22891;50.562;7.272;2022-11-15T08:35:28;99939.00;;;11.31;nan
36980;BME280;22891;50.562;7.272;2022-11-15T08:37:55;99966.00;;;11.48;nan
36980;BME280;22891;50.562;7.272;2022-11-15T08:40:21;99983.00;;;11.48;nan
36980;BME280;22891;50.562;7.272;2022-11-15T08:42:47;99996.00;;;11.59;nan
36980;BME280;22891;50.562;7.272;2022-11-15T08:45:13;100024.00;;;11.52;nan
36980;BME280;22891;50.562;7.272;2022-11-15T08:47:39;100026.00;;;11.83;nan
36980;BME280;22891;50.562;7.272;2022-11-15T08:50:06;100071.00;;;11.93;nan
36980;BME280;22891;50.562;7.272;2022-11-15T08:52:32;100080.00;;;11.68;nan
36980;BME280;22891;50.562;7.272;2022-11-15T08:54:58;100098.00;;;11.73;nan
36980;BME280;22891;50.562;7.272;2022-11-15T08:57:24;100105.00;;;11.80;nan
36980;BME280;22891;50.562;7.272;2022-11-15T08:59:49;100114.00;;;11.77;nan
36980;BME280;22891;50.562;7.272;2022-11-15T09:02:16;99967.00;;;11.67;nan
36980;BME280;22891;50.562;7.272;2022-11-15T09:04:43;100001.00;;;11.68;nan
36980;BME280;22891;50.562;7.272;2022-11-15T09:07:12;100155.00;;;11.82;nan
36980;BME280;22891;50.562;7.272;2022-11-15T09:09:39;100165.00;;;11.89;nan
36980;BME280;22891;50.562;7.272;2022-11-15T09:12:06;100164.00;;;11.80;nan
36980;BME280;22891;50.562;7.272;2022-11-15T09:14:33;100197.00;;;13.52;nan
36980;BME280;22891;50.562;7.272;2022-11-15T09:17:00;100276.00;;;14.23;nan
36980;BME280;22891;50.562;7.272;2022-11-15T09:19:26;100319.00;;;14.52;nan
36980;BME280;22891;50.562;7.272;2022-11-15T09:21:52;100343.00;;;14.54;nan
36980;BME280;22891;50.562;7.272;2022-11-15T09:24:19;100367.00;;;14.62;nan
36980;BME280;22891;50.562;7.272;2022-11-15T09:26:45;100375.00;;;14.15;nan
36980;BME280;22891;50.562;7.272;2022-11-15T09:29:11;100188.00;;;14.43;nan
36980;BME280;22891;50.562;7.272;2022-11-15T09:31:37;100344.00;;;14.72;nan
36980;BME280;22891;50.562;7.272;2022-11-15T09:34:03;100404.00;;;14.86;nan
36980;BME280;22891;50.562;7.272;2022-11-15T09:36:30;100400.00;;;14.72;nan
36980;BME280;22891;50.562;7.272;2022-11-15T09:38:57;100407.00;;;14.99;nan
36980;BME280;22891;50.562;7.272;2022-11-15T09:49:30;100409.00;;;15.10;nan
36980;BME280;22891;50.562;7.272;2022-11-15T09:51:57;100402.00;;;14.38;nan
36980;BME280;22891;50.562;7.272;2022-11-15T09:54:46;100399.00;;;14.55;nan
36980;BME280;22891;50.562;7.272;2022-11-15T09:57:41;100396.00;;;14.80;nan
36980;BME280;22891;50.562;7.272;2022-11-15T10:00:24;100391.00;;;15.39;nan
36980;BME280;22891;50.562;7.272;2022-11-15T10:03:08;100396.00;;;15.49;nan
36980;BME280;22891;50.562;7.272;2022-11-15T10:05:46;100365.00;;;15.46;nan
36980;BME280;22891;50.562;7.272;2022-11-15T10:32:20;100336.00;;;16.41;nan
36980;BME280;22891;50.562;7.272;2022-11-15T10:34:48;100316.00;;;16.86;nan
36980;BME280;22891;50.562;7.272;2022-11-15T10:37:15;100343.00;;;16.93;nan
36980;BME280;22891;50.562;7.272;2022-11-15T10:43:17;100328.00;;;16.17;nan
36980;BME280;22891;50.562;7.272;2022-11-15T10:45:44;100326.00;;;16.50;nan
36980;BME280;22891;50.562;7.272;2022-11-15T10:48:28;100332.00;;;16.66;nan
36980;BME280;22891;50.562;7.272;2022-11-15T10:50:55;100321.00;;;16.79;nan
36980;BME280;22891;50.562;7.272;2022-11-15T10:53:31;100300.00;;;16.76;nan
36980;BME280;22891;50.562;7.272;2022-11-15T10:56:17;100308.00;;;16.58;nan
36980;BME280;22891;50.562;7.272;2022-11-15T10:58:55;100281.00;;;15.45;nan
36980;BME280;22891;50.562;7.272;2022-11-15T11:01:29;100261.00;;;15.03;nan
36980;BME280;22891;50.562;7.272;2022-11-15T11:04:07;100298.00;;;15.04;nan
36980;BME280;22891;50.562;7.272;2022-11-15T11:06:53;100300.00;;;15.02;nan
36980;BME280;22891;50.562;7.272;2022-11-15T11:09:31;100288.00;;;14.52;nan
36980;BME280;22891;50.562;7.272;2022-11-15T11:11:58;100280.00;;;14.70;nan
36980;BME280;22891;50.562;7.272;2022-11-15T11:14:27;100226.00;;;14.44;nan
36980;BME280;22891;50.562;7.272;2022-11-15T11:18:32;100276.00;;;14.11;nan
36980;BME280;22891;50.562;7.272;2022-11-15T11:21:03;100276.00;;;14.11;nan
36980;BME280;22891;50.562;7.272;2022-11-15T11:24:10;100241.00;;;14.08;nan
36980;BME280;22891;50.562;7.272;2022-11-15T11:26:46;100257.00;;;14.08;nan
36980;BME280;22891;50.562;7.272;2022-11-15T11:38:10;100254.00;;;15.51;nan
36980;BME280;22891;50.562;7.272;2022-11-15T11:40:50;100225.00;;;15.88;nan
36980;BME280;22891;50.562;7.272;2022-11-15T11:44:57;100236.00;;;14.95;nan
36980;BME280;22891;50.562;7.272;2022-11-15T11:48:13;100234.00;;;15.87;nan
36980;BME280;22891;50.562;7.272;2022-11-15T11:50:42;100240.00;;;15.55;nan
36980;BME280;22891;50.562;7.272;2022-11-15T11:53:54;100239.00;;;15.85;nan
36980;BME280;22891;50.562;7.272;2022-11-15T11:56:31;100223.00;;;15.45;nan
36980;BME280;22891;50.562;7.272;2022-11-15T11:59:07;100236.00;;;14.69;nan
36980;BME280;22891;50.562;7.272;2022-11-15T12:01:43;100233.00;;;14.96;nan
36980;BME280;22891;50.562;7.272;2022-11-15T12:04:36;100227.00;;;14.51;nan
36980;BME280;22891;50.562;7.272;2022-11-15T12:07:13;100223.00;;;14.63;nan
36980;BME280;22891;50.562;7.272;2022-11-15T12:13:12;100218.00;;;14.42;nan
36980;BME280;22891;50.562;7.272;2022-11-15T12:15:47;100221.00;;;14.41;nan
36980;BME280;22891;50.562;7.272;2022-11-15T12:18:15;100213.00;;;14.65;nan
36980;BME280;22891;50.562;7.272;2022-11-15T12:20:49;100209.00;;;14.72;nan
36980;BME280;22891;50.562;7.272;2022-11-15T12:23:23;100202.00;;;14.39;nan
36980;BME280;22891;50.562;7.272;2022-11-15T12:26:39;100188.00;;;14.52;nan
36980;BME280;22891;50.562;7.272;2022-11-15T12:29:15;100184.00;;;14.25;nan
36980;BME280;22891;50.562;7.272;2022-11-15T12:31:59;100187.00;;;14.16;nan
36980;BME280;22891;50.562;7.272;2022-11-15T12:34:43;100183.00;;;14.17;nan
36980;BME280;22891;50.562;7.272;2022-11-15T12:41:18;100169.00;;;14.17;nan
36980;BME280;22891;50.562;7.272;2022-11-15T12:43:46;100131.00;;;13.82;nan
36980;BME280;22891;50.562;7.272;2022-11-15T12:49:47;100142.00;;;13.99;nan
36980;BME280;22891;50.562;7.272;2022-11-15T12:52:16;100127.00;;;14.80;nan
36980;BME280;22891;50.562;7.272;2022-11-15T12:54:58;100133.00;;;15.38;nan
36980;BME280;22891;50.562;7.272;2022-11-15T12:57:30;100132.00;;;15.38;nan
36980;BME280;22891;50.562;7.272;2022-11-15T13:00:05;100132.00;;;15.07;nan
36980;BME280;22891;50.562;7.272;2022-11-15T13:03:21;100119.00;;;14.95;nan
36980;BME280;22891;50.562;7.272;2022-11-15T13:05:56;100118.00;;;14.90;nan
36980;BME280;22891;50.562;7.272;2022-11-15T13:08:46;100105.00;;;14.66;nan
36980;BME280;22891;50.562;7.272;2022-11-15T13:12:48;100108.00;;;14.78;nan
36980;BME280;22891;50.562;7.272;2022-11-15T13:16:36;100100.00;;;14.89;nan
36980;BME280;22891;50.562;7.272;2022-11-15T13:19:09;100086.00;;;14.81;nan
36980;BME280;22891;50.562;7.272;2022-11-15T13:21:48;100087.00;;;14.94;nan
36980;BME280;22891;50.562;7.272;2022-11-15T13:24:33;100091.00;;;15.15;nan
36980;BME280;22891;50.562;7.272;2022-11-15T13:26:58;100080.00;;;14.83;nan
36980;BME280;22891;50.562;7.272;2022-11-15T13:29:25;100077.00;;;14.72;nan
36980;BME280;22891;50.562;7.272;2022-11-15T13:31:51;100068.00;;;14.47;nan
36980;BME280;22891;50.562;7.272;2022-11-15T13:34:28;100061.00;;;14.49;nan
36980;BME280;22891;50.562;7.272;2022-11-15T13:37:01;100060.00;;;14.59;nan
36980;BME280;22891;50.562;7.272;2022-11-15T13:39:33;100048.00;;;14.29;nan
36980;BME280;22891;50.562;7.272;2022-11-15T13:42:01;100037.00;;;14.12;nan
36980;BME280;22891;50.562;7.272;2022-11-15T13:44:30;100045.00;;;14.27;nan
36980;BME280;22891;50.562;7.272;2022-11-15T13:47:58;100041.00;;;14.08;nan
36980;BME280;22891;50.562;7.272;2022-11-15T13:50:30;100040.00;;;13.95;nan
36980;BME280;22891;50.562;7.272;2022-11-15T13:53:00;100027.00;;;13.90;nan
36980;BME280;22891;50.562;7.272;2022-11-15T13:55:30;99995.00;;;13.85;nan
36980;BME280;22891;50.562;7.272;2022-11-15T13:58:03;100012.00;;;14.11;nan
36980;BME280;22891;50.562;7.272;2022-11-15T14:00:42;100013.00;;;14.12;nan
36980;BME280;22891;50.562;7.272;2022-11-15T14:06:15;100021.00;;;14.12;nan
36980;BME280;22891;50.562;7.272;2022-11-15T14:12:50;99991.00;;;14.05;nan
36980;BME280;22891;50.562;7.272;2022-11-15T14:15:35;99972.00;;;14.06;nan
36980;BME280;22891;50.562;7.272;2022-11-15T14:18:02;99988.00;;;13.95;nan
36980;BME280;22891;50.562;7.272;2022-11-15T14:25:54;99958.00;;;13.83;nan
36980;BME280;22891;50.562;7.272;2022-11-15T14:28:38;99960.00;;;13.78;nan
36980;BME280;22891;50.562;7.272;2022-11-15T14:31:11;99955.00;;;13.63;nan
36980;BME280;22891;50.562;7.272;2022-11-15T14:33:38;99949.00;;;13.67;nan
36980;BME280;22891;50.562;7.272;2022-11-15T14:36:19;99945.00;;;13.57;nan
36980;BME280;22891;50.562;7.272;2022-11-15T14:38:46;99920.00;;;13.42;nan
36980;BME280;22891;50.562;7.272;2022-11-15T14:41:21;99933.00;;;13.42;nan
36980;BME280;22891;50.562;7.272;2022-11-15T14:43:49;99907.00;;;13.36;nan
36980;BME280;22891;50.562;7.272;2022-11-15T14:46:16;99908.00;;;13.46;nan
36980;BME280;22891;50.562;7.272;2022-11-15T14:48:43;99899.00;;;13.34;nan
36980;BME280;22891;50.562;7.272;2022-11-15T14:51:13;99898.00;;;13.27;nan
36980;BME280;22891;50.562;7.272;2022-11-15T14:53:40;99889.00;;;13.20;nan
36980;BME280;22891;50.562;7.272;2022-11-15T14:56:06;99906.00;;;13.29;nan
36980;BME280;22891;50.562;7.272;2022-11-15T14:58:32;99899.00;;;13.20;nan
36980;BME280;22891;50.562;7.272;2022-11-15T15:00:58;99887.00;;;13.17;nan
36980;BME280;22891;50.562;7.272;2022-11-15T15:03:24;99887.00;;;13.17;nan
36980;BME280;22891;50.562;7.272;2022-11-15T15:05:50;99880.00;;;13.21;nan
36980;BME280;22891;50.562;7.272;2022-11-15T15:08:16;99872.00;;;13.15;nan
36980;BME280;22891;50.562;7.272;2022-11-15T15:10:43;99854.00;;;13.00;nan
36980;BME280;22891;50.562;7.272;2022-11-15T15:13:19;99867.00;;;13.08;nan
36980;BME280;22891;50.562;7.272;2022-11-15T15:15:46;99854.00;;;13.05;nan
36980;BME280;22891;50.562;7.272;2022-11-15T15:18:13;99860.00;;;13.14;nan
36980;BME280;22891;50.562;7.272;2022-11-15T15:20:40;99860.00;;;13.17;nan
36980;BME280;22891;50.562;7.272;2022-11-15T15:23:15;99856.00;;;13.31;nan
36980;BME280;22891;50.562;7.272;2022-11-15T15:25:41;99870.00;;;13.37;nan
36980;BME280;22891;50.562;7.272;2022-11-15T15:28:07;99844.00;;;13.14;nan
36980;BME280;22891;50.562;7.272;2022-11-15T15:30:33;99856.00;;;13.13;nan
36980;BME280;22891;50.562;7.272;2022-11-15T15:32:58;99835.00;;;13.02;nan
36980;BME280;22891;50.562;7.272;2022-11-15T15:35:29;99837.00;;;13.06;nan
36980;BME280;22891;50.562;7.272;2022-11-15T15:37:56;99826.00;;;12.99;nan
36980;BME280;22891;50.562;7.272;2022-11-15T15:40:23;99819.00;;;12.89;nan